Time;durP1;ratioP1;P1;durP2;ratioP2;P2;SDS_P1;SDS_P2;PMS_P1;PMS_P2;Temp;Humidity;BMP_temperature;BMP_pressure;BME280_temperature;BME280_humidity;BME280_pressure;Samples;Min_cycle;Max_cycle;Signal;HPM_P1;HPM_P2
2022/04/16 00:01:27;;;;;;;14.63;4.30;;;;;;;17.79;44.89;101518.91;5052066;28;20071;-60
2022/04/16 00:03:55;;;;;;;6.75;3.38;;;;;;;17.66;45.21;101522.59;5052595;28;20071;-59
2022/04/16 00:06:22;;;;;;;6.78;3.60;;;;;;;17.59;45.29;101522.19;5052497;28;20076;-60
2022/04/16 00:08:49;;;;;;;5.47;3.28;;;;;;;17.54;45.51;101524.34;5052390;28;20044;-60
2022/04/16 00:11:15;;;;;;;4.13;3.72;;;;;;;17.48;45.32;101522.16;5052502;28;20080;-60
2022/04/16 00:13:42;;;;;;;7.03;3.55;;;;;;;17.42;45.45;101526.09;5043325;28;20092;-60
2022/04/16 00:16:09;;;;;;;3.95;3.40;;;;;;;17.42;45.42;101510.16;5032093;28;20052;-60
2022/04/16 00:18:36;;;;;;;4.80;3.15;;;;;;;17.40;44.92;101514.75;5032399;28;20068;-59
2022/04/16 00:21:05;;;;;;;5.22;3.85;;;;;;;17.36;45.08;101500.84;5032278;28;20494;-60
2022/04/16 00:23:31;;;;;;;5.10;3.38;;;;;;;17.37;44.57;101510.53;5032475;28;20048;-60
2022/04/16 00:25:58;;;;;;;8.27;3.97;;;;;;;17.34;44.89;101504.59;5032469;28;20049;-60
2022/04/16 00:28:27;;;;;;;6.55;3.38;;;;;;;17.30;44.90;101503.97;5032400;28;20057;-60
2022/04/16 00:30:56;;;;;;;6.68;3.60;;;;;;;17.24;45.14;101499.97;5031443;28;20133;-60
2022/04/16 00:33:25;;;;;;;7.30;3.38;;;;;;;17.19;45.31;101495.94;5032492;28;20053;-60
2022/04/16 00:35:52;;;;;;;8.15;3.53;;;;;;;17.12;45.40;101504.34;5032285;28;20083;-60
2022/04/16 00:38:19;;;;;;;8.38;4.05;;;;;;;17.11;45.50;101501.81;5032033;28;20045;-59
2022/04/16 00:40:46;;;;;;;8.75;3.83;;;;;;;17.07;45.43;101506.47;5032279;28;20045;-60
2022/04/16 00:43:27;;;;;;;8.23;4.50;;;;;;;17.06;45.80;101501.28;5032193;28;20045;-60
2022/04/16 00:45:54;;;;;;;7.25;3.90;;;;;;;17.02;45.79;101490.03;5039030;28;20072;-60
2022/04/16 00:48:22;;;;;;;5.60;3.38;;;;;;;16.96;46.15;101486.06;5055157;28;20057;-60
2022/04/16 00:50:50;;;;;;;7.70;4.13;;;;;;;16.95;46.02;101488.78;5056161;28;20064;-60
2022/04/16 00:53:17;;;;;;;7.47;4.25;;;;;;;16.98;46.23;101491.22;5056117;28;20076;-60
2022/04/16 00:55:44;;;;;;;8.02;4.15;;;;;;;16.96;46.47;101485.19;5056156;28;20059;-60
2022/04/16 00:58:11;;;;;;;5.97;3.30;;;;;;;16.92;46.72;101484.56;5055965;28;20095;-60
2022/04/16 01:00:38;;;;;;;5.88;3.60;;;;;;;16.92;47.12;101489.84;5055983;28;20049;-60
2022/04/16 01:03:05;;;;;;;7.60;4.05;;;;;;;16.91;47.11;101489.97;5036225;28;20073;-60
2022/04/16 01:05:32;;;;;;;5.35;3.70;;;;;;;16.94;46.81;101493.25;5036084;28;20049;-60
2022/04/16 01:08:02;;;;;;;5.82;4.15;;;;;;;16.95;46.63;101481.69;5035672;28;20045;-60
2022/04/16 01:10:31;;;;;;;9.35;4.15;;;;;;;16.97;46.15;101482.41;5035811;28;20052;-60
2022/04/16 01:13:02;;;;;;;8.40;5.32;;;;;;;16.94;46.45;101479.16;5035980;28;20056;-60
2022/04/16 01:15:29;;;;;;;8.90;4.40;;;;;;;16.96;46.94;101475.44;5035965;28;20080;-60
2022/04/16 01:17:58;;;;;;;10.88;4.75;;;;;;;16.96;46.96;101480.75;5035004;28;20053;-60
2022/04/16 01:20:25;;;;;;;11.32;5.00;;;;;;;16.95;47.39;101476.41;5035912;28;20060;-60
2022/04/16 01:22:52;;;;;;;11.20;5.43;;;;;;;16.95;47.33;101468.44;5035609;28;20144;-61
2022/04/16 01:25:19;;;;;;;10.48;4.97;;;;;;;16.93;47.68;101467.69;5035556;28;20171;-61
2022/04/16 01:27:46;;;;;;;13.02;5.70;;;;;;;16.89;47.86;101474.16;5035482;28;20079;-59
2022/04/16 01:30:14;;;;;;;8.93;5.00;;;;;;;16.89;47.98;101468.00;5035625;28;20068;-60
2022/04/16 01:32:41;;;;;;;11.02;5.50;;;;;;;16.89;47.73;101468.84;5035210;28;20073;-60
2022/04/16 01:35:09;;;;;;;12.60;5.47;;;;;;;16.86;48.09;101470.88;5047347;28;20394;-60
2022/04/16 01:37:37;;;;;;;8.60;4.90;;;;;;;16.80;48.50;101466.88;5055552;28;20118;-61
2022/04/16 01:40:06;;;;;;;7.30;4.43;;;;;;;16.75;48.61;101458.41;5055135;28;20537;-61
2022/04/16 01:42:32;;;;;;;13.95;5.30;;;;;;;16.65;48.93;101460.84;5055248;28;20045;-60
2022/04/16 01:45:02;;;;;;;15.45;4.85;;;;;;;16.61;49.02;101462.03;5055110;28;20045;-60
2022/04/16 01:47:29;;;;;;;18.25;5.72;;;;;;;16.57;49.34;101466.69;5055017;28;20045;-61
2022/04/16 01:49:56;;;;;;;9.35;4.30;;;;;;;16.56;49.29;101454.41;5044624;28;20088;-61
2022/04/16 01:52:23;;;;;;;8.38;4.47;;;;;;;16.57;49.29;101440.19;5035194;28;20111;-60
2022/04/16 01:54:50;;;;;;;10.07;4.53;;;;;;;16.51;49.26;101442.44;5034826;28;20080;-60
2022/04/16 01:57:20;;;;;;;5.10;4.60;;;;;;;16.42;49.45;101443.94;5034749;28;20107;-60
2022/04/16 01:59:48;;;;;;;4.88;4.20;;;;;;;16.37;48.90;101433.66;5035049;28;20073;-60
2022/04/16 02:02:15;;;;;;;6.13;4.32;;;;;;;16.37;49.01;101444.25;5035062;28;20053;-60
2022/04/16 02:04:43;;;;;;;8.55;5.03;;;;;;;16.31;49.07;101436.72;5034290;28;20096;-60
2022/04/16 02:07:10;;;;;;;7.13;4.45;;;;;;;16.22;49.11;101437.38;5034890;28;20081;-60
2022/04/16 02:09:36;;;;;;;8.23;4.72;;;;;;;16.25;49.10;101434.50;5034711;28;20140;-60
2022/04/16 02:12:03;;;;;;;5.38;4.70;;;;;;;16.26;49.03;101436.19;5034581;28;20100;-61
2022/04/16 02:14:30;;;;;;;7.55;4.55;;;;;;;16.25;49.00;101437.16;5034724;28;20120;-61
2022/04/16 02:16:58;;;;;;;6.35;4.32;;;;;;;16.22;49.01;101437.38;5034565;28;20082;-60
2022/04/16 02:19:26;;;;;;;6.43;4.28;;;;;;;16.21;48.96;101440.97;5034630;28;20046;-61
2022/04/16 02:21:53;;;;;;;5.00;4.50;;;;;;;16.20;48.95;101433.97;5034214;28;20088;-60
2022/04/16 02:24:19;;;;;;;11.43;5.07;;;;;;;16.21;48.85;101436.50;5034474;28;20050;-60
2022/04/16 02:26:46;;;;;;;9.43;4.55;;;;;;;16.15;48.90;101432.50;5034559;28;20069;-60
2022/04/16 02:29:13;;;;;;;12.18;5.15;;;;;;;16.19;49.22;101433.16;5034127;28;20081;-60
2022/04/16 02:31:41;;;;;;;8.32;4.78;;;;;;;16.18;49.32;101435.91;5034337;28;20099;-61
2022/04/16 02:34:11;;;;;;;9.77;5.00;;;;;;;16.15;49.37;101429.00;5034205;28;20057;-61
2022/04/16 02:36:40;;;;;;;9.00;4.78;;;;;;;16.12;49.58;101437.16;5034254;28;20518;-61
2022/04/16 02:39:08;;;;;;;12.23;5.57;;;;;;;16.11;49.90;101438.97;5033489;28;20045;-60
2022/04/16 02:41:35;;;;;;;9.02;5.20;;;;;;;16.13;50.03;101438.84;5034234;28;20107;-60
2022/04/16 02:44:02;;;;;;;12.80;5.45;;;;;;;16.09;50.29;101430.28;5034136;28;20049;-60
2022/04/16 02:49:13;;;;;;;10.60;5.05;;;;;;;16.04;50.17;101428.91;5033899;28;20049;-60
2022/04/16 02:51:40;;;;;;;12.45;5.40;;;;;;;16.04;50.33;101435.03;5033925;28;20442;-60
2022/04/16 02:54:07;;;;;;;7.80;4.75;;;;;;;15.99;50.51;101437.16;5033464;28;20045;-60
2022/04/16 02:56:33;;;;;;;6.53;4.63;;;;;;;15.95;50.43;101436.53;5033977;28;20081;-61
2022/04/16 02:59:00;;;;;;;6.85;5.07;;;;;;;15.96;50.40;101429.41;5033719;28;20081;-60
2022/04/16 03:01:26;;;;;;;6.72;5.13;;;;;;;15.91;50.48;101431.53;5033707;28;20551;-60
2022/04/16 03:03:53;;;;;;;6.30;5.03;;;;;;;15.83;51.00;101421.47;5042933;28;20059;-60
2022/04/16 03:06:19;;;;;;;8.25;6.10;;;;;;;15.78;51.22;101424.41;5049267;28;20068;-60
2022/04/16 03:08:46;;;;;;;10.27;6.22;;;;;;;15.76;51.87;101418.38;5049453;28;20041;-60
2022/04/16 03:11:12;;;;;;;9.52;5.53;;;;;;;15.70;52.15;101418.78;5038463;28;20092;-60
2022/04/16 03:13:39;;;;;;;7.47;5.00;;;;;;;15.63;52.33;101418.34;5030347;28;20073;-60
2022/04/16 03:18:51;;;;;;;7.97;5.32;;;;;;;15.60;52.10;101423.00;5030173;28;20119;-60
2022/04/16 03:21:17;;;;;;;8.07;5.32;;;;;;;15.57;52.48;101413.47;5030121;28;20053;-60
2022/04/16 03:23:44;;;;;;;7.05;5.68;;;;;;;15.56;52.45;101417.06;5030339;28;20149;-60
2022/04/16 03:26:11;;;;;;;8.65;5.47;;;;;;;15.55;52.37;101422.47;5030193;28;20080;-60
2022/04/16 03:28:38;;;;;;;10.40;5.65;;;;;;;15.54;52.44;101418.13;5029359;28;20123;-60
2022/04/16 03:31:05;;;;;;;8.90;5.18;;;;;;;15.51;52.27;101420.03;5029909;28;20045;-60
2022/04/16 03:33:32;;;;;;;9.20;5.35;;;;;;;15.49;52.13;101415.75;5029709;28;20045;-60
2022/04/16 03:35:58;;;;;;;6.82;4.97;;;;;;;15.45;52.13;101417.78;5029863;28;20049;-61
2022/04/16 03:38:25;;;;;;;8.05;5.75;;;;;;;15.40;51.93;101417.25;5029791;28;20073;-60
2022/04/16 03:40:51;;;;;;;7.35;5.10;;;;;;;15.38;51.98;101413.03;5030230;28;20080;-60
2022/04/16 03:43:26;;;;;;;7.38;4.85;;;;;;;15.32;51.99;101422.19;5029748;28;20052;-60
2022/04/16 03:45:52;;;;;;;9.77;5.28;;;;;;;15.24;51.93;101417.41;5029978;28;20441;-60
2022/04/16 03:48:19;;;;;;;6.63;4.93;;;;;;;15.16;52.30;101417.03;5029398;28;20077;-60
2022/04/16 03:50:45;;;;;;;10.68;5.30;;;;;;;15.13;51.97;101418.09;5061378;28;20054;-60
2022/04/16 03:53:12;;;;;;;19.92;6.53;;;;;;;15.09;52.06;101423.69;5029633;28;20142;-60
2022/04/16 04:01:08;;;;;;;10.40;5.53;;;;;;;15.06;51.98;101422.09;5029443;28;20072;-60
2022/04/16 04:03:36;;;;;;;16.13;5.50;;;;;;;15.02;52.09;101425.91;5029274;28;20049;-60
2022/04/16 04:06:04;;;;;;;14.05;5.55;;;;;;;15.06;51.81;101435.31;5029436;28;20054;-60
2022/04/16 04:08:31;;;;;;;9.23;4.97;;;;;;;15.06;51.84;101429.16;5029399;28;20079;-61
2022/04/16 04:10:58;;;;;;;10.65;6.40;;;;;;;15.02;52.07;101433.81;5029162;28;20050;-60
2022/04/16 04:13:24;;;;;;;8.18;5.00;;;;;;;15.00;51.89;101431.25;5029268;28;20081;-60
2022/04/16 04:15:51;;;;;;;10.20;5.38;;;;;;;14.96;51.84;101429.78;5029592;28;20053;-59
2022/04/16 04:18:18;;;;;;;10.63;6.15;;;;;;;14.91;52.05;101434.50;5042505;28;20056;-60
2022/04/16 04:20:45;;;;;;;9.98;5.40;;;;;;;14.93;51.91;101437.03;5049537;28;20432;-60
2022/04/16 04:23:11;;;;;;;10.88;5.70;;;;;;;14.88;52.05;101442.63;5049039;28;20052;-60
2022/04/16 04:25:38;;;;;;;13.43;5.97;;;;;;;14.86;52.15;101437.44;5048866;28;20090;-60
2022/04/16 04:28:04;;;;;;;12.15;5.80;;;;;;;14.87;51.84;101438.28;5049056;28;20088;-60
2022/04/16 04:30:31;;;;;;;6.57;4.93;;;;;;;14.81;52.16;101442.16;5049050;28;20049;-60
2022/04/16 04:32:58;;;;;;;10.43;5.38;;;;;;;14.82;52.00;101443.03;5048657;28;20135;-60
2022/04/16 04:35:26;;;;;;;9.75;4.85;;;;;;;14.84;52.05;101446.41;5040873;28;20379;-60
2022/04/16 04:37:53;;;;;;;12.35;5.65;;;;;;;14.79;51.90;101438.78;5028954;28;20103;-60
2022/04/16 04:40:19;;;;;;;7.70;5.50;;;;;;;14.76;52.02;101449.53;5028921;28;20107;-60
2022/04/16 04:42:46;;;;;;;8.35;5.30;;;;;;;14.77;51.96;101445.13;5029169;28;20084;-60
2022/04/16 04:45:15;;;;;;;9.95;5.70;;;;;;;14.82;52.02;101448.31;5029229;28;20045;-60
2022/04/16 04:47:41;;;;;;;8.60;5.47;;;;;;;14.84;51.90;101447.25;5028859;28;20080;-60
2022/04/16 04:50:09;;;;;;;6.40;4.82;;;;;;;14.85;52.03;101446.31;5028632;28;20054;-60
2022/04/16 04:52:37;;;;;;;9.02;5.80;;;;;;;14.84;51.99;101455.19;5028449;28;20085;-59
2022/04/16 04:55:10;;;;;;;6.65;5.05;;;;;;;14.83;52.13;101449.97;5028829;28;20108;-59
2022/04/16 04:57:37;;;;;;;7.85;4.80;;;;;;;14.86;52.13;101448.00;5028713;28;20042;-60
2022/04/16 05:00:09;;;;;;;9.00;5.32;;;;;;;14.88;52.04;101449.69;5028619;28;20087;-59
2022/04/16 05:02:43;;;;;;;8.60;4.70;;;;;;;14.90;52.23;101453.09;5028771;28;20103;-60
2022/04/16 05:05:10;;;;;;;10.50;5.15;;;;;;;14.90;52.28;101451.28;5028738;28;20505;-60
2022/04/16 05:07:37;;;;;;;13.45;5.50;;;;;;;14.91;52.19;101462.75;5028334;28;20103;-59
2022/04/16 05:10:04;;;;;;;7.15;4.88;;;;;;;14.91;52.32;101454.81;5028647;28;20081;-59
2022/04/16 05:12:31;;;;;;;12.02;5.18;;;;;;;14.88;52.46;101460.28;5028745;28;20108;-60
2022/04/16 05:14:57;;;;;;;10.43;5.18;;;;;;;14.93;52.39;101466.97;5028788;28;20045;-60
2022/04/16 05:17:24;;;;;;;8.48;5.07;;;;;;;14.95;52.74;101464.22;5028777;28;20049;-60
2022/04/16 05:19:50;;;;;;;9.98;5.25;;;;;;;14.96;52.67;101456.19;5028384;28;20421;-60
2022/04/16 05:22:17;;;;;;;6.88;5.18;;;;;;;14.99;52.71;101457.78;5027723;28;20045;-60
2022/04/16 05:24:45;;;;;;;6.75;5.15;;;;;;;15.04;52.80;101454.88;5028790;28;20145;-60
2022/04/16 05:27:12;;;;;;;9.35;5.88;;;;;;;15.12;52.87;101453.44;5028806;28;20080;-60
2022/04/16 05:30:04;;;;;;;22.40;6.50;;;;;;;15.21;52.86;101446.69;5028640;28;20055;-60
2022/04/16 05:32:35;;;;;;;17.98;6.05;;;;;;;15.31;52.55;101447.78;5032377;28;20053;-60
2022/04/16 05:35:06;;;;;;;12.55;5.72;;;;;;;15.42;52.73;101460.28;5031961;28;20053;-60
2022/04/16 05:37:34;;;;;;;11.50;6.22;;;;;;;15.49;52.37;101460.72;5032185;28;20049;-60
2022/04/16 05:40:02;;;;;;;9.00;5.43;;;;;;;15.58;52.56;101465.44;5031652;28;20112;-60
2022/04/16 05:42:29;;;;;;;9.93;6.25;;;;;;;15.69;52.44;101459.41;5051268;28;20088;-60
2022/04/16 05:45:02;;;;;;;10.00;5.85;;;;;;;15.82;52.18;101465.63;5052249;28;20372;-60
2022/04/16 05:47:29;;;;;;;11.77;6.10;;;;;;;15.93;52.20;101467.53;5050100;28;20144;-60
2022/04/16 05:49:55;;;;;;;11.02;5.85;;;;;;;16.04;52.32;101458.03;5043560;28;20111;-60
2022/04/16 05:52:22;;;;;;;8.43;5.43;;;;;;;16.12;51.71;101458.34;5048519;28;20100;-61
2022/04/16 05:54:50;;;;;;;4.95;1.75;;;;;;;16.37;51.65;101452.19;5051757;28;20091;-60
2022/04/16 05:57:17;;;;;;;3.08;1.70;;;;;;;16.89;51.20;101446.81;5035021;28;20041;-60
2022/04/16 05:59:44;;;;;;;10.40;6.57;;;;;;;16.80;51.85;101457.09;5031609;28;20092;-60
2022/04/16 06:02:11;;;;;;;9.15;6.55;;;;;;;16.79;51.55;101459.88;5031696;28;20141;-60
2022/04/16 06:04:38;;;;;;;13.32;7.35;;;;;;;16.75;51.68;101458.41;5038832;28;20091;-59
2022/04/16 06:07:05;;;;;;;10.57;6.82;;;;;;;16.79;51.30;101454.56;5050929;28;20045;-59
2022/04/16 06:09:31;;;;;;;12.82;7.55;;;;;;;16.79;51.41;101460.69;5051031;28;20045;-59
2022/04/16 06:12:05;;;;;;;14.05;7.70;;;;;;;16.91;50.74;101452.84;5051196;28;20509;-60
2022/04/16 06:14:32;;;;;;;15.73;8.95;;;;;;;16.96;50.64;101461.31;5049934;28;20045;-59
2022/04/16 06:16:58;;;;;;;16.70;9.50;;;;;;;17.02;50.71;101455.56;5051245;28;20413;-59
2022/04/16 06:19:25;;;;;;;15.63;9.13;;;;;;;17.11;50.45;101446.94;5051259;28;20068;-59
2022/04/16 06:21:52;;;;;;;16.08;9.18;;;;;;;17.17;49.71;101452.78;5051236;28;20053;-60
2022/04/16 06:24:18;;;;;;;14.55;9.45;;;;;;;17.22;49.66;101450.63;5051159;28;20049;-58
2022/04/16 06:26:47;;;;;;;16.83;9.18;;;;;;;17.32;49.41;101449.00;5050787;28;20513;-60
2022/04/16 06:29:14;;;;;;;12.05;9.02;;;;;;;17.38;48.87;101445.03;5042611;28;20073;-59
2022/04/16 06:31:41;;;;;;;14.82;9.20;;;;;;;17.41;48.73;101447.47;5031346;28;20081;-59
2022/04/16 06:34:07;;;;;;;13.57;8.98;;;;;;;17.37;49.12;101457.47;5030915;28;20125;-59
2022/04/16 06:36:34;;;;;;;16.02;9.35;;;;;;;17.52;48.56;101455.47;5030978;28;20104;-59
2022/04/16 06:39:00;;;;;;;14.65;8.68;;;;;;;17.70;48.07;101455.91;5030661;28;20081;-60
2022/04/16 06:41:31;;;;;;;13.10;8.25;;;;;;;17.82;48.22;101447.97;5030931;28;20072;-59
2022/04/16 06:43:58;;;;;;;17.33;9.18;;;;;;;17.85;47.88;101453.03;5034615;28;20084;-59
2022/04/16 06:46:25;;;;;;;14.93;9.00;;;;;;;17.93;47.82;101451.50;5050626;28;20460;-59
2022/04/16 06:48:51;;;;;;;20.30;9.48;;;;;;;18.15;47.40;101449.84;5050564;28;20409;-59
2022/04/16 06:51:18;;;;;;;17.48;9.90;;;;;;;18.28;47.65;101450.59;5050382;28;20088;-58
2022/04/16 06:53:44;;;;;;;19.30;9.75;;;;;;;18.37;47.18;101449.03;5050523;28;20120;-59
2022/04/16 06:56:11;;;;;;;16.40;9.00;;;;;;;18.51;47.07;101455.94;5050517;28;20049;-59
2022/04/16 06:58:37;;;;;;;15.00;8.98;;;;;;;18.63;46.71;101459.41;5050449;28;20045;-59
2022/04/16 07:01:04;;;;;;;15.40;8.98;;;;;;;18.77;46.59;101455.66;5047873;28;20561;-59
2022/04/16 07:03:31;;;;;;;21.33;8.85;;;;;;;18.90;45.85;101455.53;5049722;28;20505;-59
2022/04/16 07:05:57;;;;;;;10.80;7.72;;;;;;;19.02;45.85;101459.88;5049638;28;20523;-59
2022/04/16 07:08:24;;;;;;;12.75;7.10;;;;;;;19.08;45.69;101458.50;5049668;28;20044;-59
2022/04/16 07:10:52;;;;;;;10.52;6.75;;;;;;;19.19;45.34;101455.81;5049275;28;20140;-59
2022/04/16 07:13:18;;;;;;;12.07;7.05;;;;;;;19.31;45.35;101459.31;5049655;28;20415;-59
2022/04/16 07:15:46;;;;;;;12.18;7.13;;;;;;;19.39;44.59;101454.19;5049686;28;20045;-59
2022/04/16 07:18:13;;;;;;;13.65;7.30;;;;;;;19.50;44.67;101461.28;5044967;28;20080;-59
2022/04/16 07:20:40;;;;;;;10.70;7.13;;;;;;;19.57;44.43;101454.47;5049485;28;20072;-60
2022/04/16 07:23:07;;;;;;;8.70;6.38;;;;;;;19.67;44.69;101454.53;5049303;28;20095;-63
2022/04/16 07:25:34;;;;;;;9.07;6.63;;;;;;;19.78;44.61;101448.28;5044342;28;20077;-62
2022/04/16 07:28:01;;;;;;;8.05;6.55;;;;;;;19.89;44.29;101458.06;5048844;28;20044;-60
2022/04/16 07:30:28;;;;;;;11.65;7.00;;;;;;;19.93;44.45;101456.84;5049324;28;20138;-60
2022/04/16 07:32:54;;;;;;;8.30;5.85;;;;;;;20.03;44.21;101468.38;5046612;28;20068;-61
2022/04/16 07:35:26;;;;;;;9.38;6.72;;;;;;;20.17;43.65;101461.03;5048943;28;20422;-60
2022/04/16 07:37:57;;;;;;;8.93;6.20;;;;;;;20.32;43.86;101462.38;5049581;28;20105;-60
2022/04/16 07:40:25;;;;;;;9.13;6.57;;;;;;;20.44;43.85;101459.63;5049482;28;20053;-61
2022/04/16 07:42:52;;;;;;;9.50;6.50;;;;;;;20.59;43.34;101463.59;5049488;28;20110;-60
2022/04/16 07:45:21;;;;;;;9.65;6.13;;;;;;;20.65;43.63;101464.91;5049137;28;20045;-60
2022/04/16 07:47:48;;;;;;;11.48;6.82;;;;;;;20.71;43.46;101459.91;5049049;28;20500;-60
2022/04/16 07:50:16;;;;;;;38.38;8.15;;;;;;;20.86;43.10;101468.38;5031614;28;20509;-60
2022/04/16 07:52:44;;;;;;;6.80;4.97;;;;;;;20.80;43.17;101455.56;5029155;28;20076;-60
2022/04/16 07:55:14;;;;;;;13.73;5.03;;;;;;;20.61;43.51;101463.47;5028960;28;20069;-60
2022/04/16 07:57:40;;;;;;;7.63;5.72;;;;;;;20.87;42.66;101456.72;5029486;28;20049;-58
2022/04/16 08:00:09;;;;;;;9.35;6.00;;;;;;;21.08;41.97;101460.25;5046806;28;20049;-60
2022/04/16 08:02:36;;;;;;;7.95;5.57;;;;;;;20.75;42.45;101455.13;5049053;28;20064;-60
2022/04/16 08:05:03;;;;;;;11.30;5.72;;;;;;;20.99;41.79;101456.59;5040001;28;20049;-60
2022/04/16 08:07:30;;;;;;;10.15;5.20;;;;;;;21.11;41.54;101459.97;5029418;28;20081;-60
2022/04/16 08:09:56;;;;;;;10.48;6.18;;;;;;;21.29;41.31;101454.78;5029071;28;20095;-60
2022/04/16 08:12:25;;;;;;;8.13;4.85;;;;;;;21.14;41.88;101462.34;5029163;28;20049;-60
2022/04/16 08:14:52;;;;;;;10.98;4.80;;;;;;;21.04;41.44;101467.72;5029236;28;20096;-60
2022/04/16 08:17:18;;;;;;;9.63;4.82;;;;;;;20.83;41.85;101459.78;5029051;28;20534;-60
2022/04/16 08:19:46;;;;;;;7.07;4.57;;;;;;;21.43;40.99;101461.53;5029065;28;20564;-59
2022/04/16 08:22:17;;;;;;;5.90;3.55;;;;;;;21.96;39.88;101454.91;5028345;28;20445;-60
2022/04/16 08:24:54;;;;;;;10.95;3.75;;;;;;;22.27;39.47;101470.69;5029088;28;20080;-60
2022/04/16 08:27:21;;;;;;;9.30;3.95;;;;;;;22.20;39.55;101465.09;5028852;28;20084;-60
2022/04/16 08:29:47;;;;;;;8.73;4.43;;;;;;;21.60;40.32;101460.88;5028875;28;20045;-59
2022/04/16 08:32:14;;;;;;;8.00;4.50;;;;;;;21.90;39.81;101460.81;5028683;28;20123;-60
2022/04/16 08:34:50;;;;;;;5.55;3.60;;;;;;;22.05;39.79;101458.53;5029068;28;20049;-60
2022/04/16 08:37:16;;;;;;;4.88;3.88;;;;;;;22.33;39.14;101459.44;5028238;28;20053;-60
2022/04/16 08:39:43;;;;;;;5.00;3.75;;;;;;;22.64;38.46;101462.69;5028657;28;20045;-59
2022/04/16 08:42:10;;;;;;;4.50;3.00;;;;;;;22.46;38.75;101453.78;5028799;28;20111;-59
2022/04/16 08:44:39;;;;;;;5.65;3.30;;;;;;;22.86;37.60;101457.09;5029117;28;20053;-60
2022/04/16 08:47:06;;;;;;;5.32;2.38;;;;;;;23.12;36.92;101457.19;5028838;28;20069;-60
2022/04/16 08:49:34;;;;;;;5.57;2.40;;;;;;;23.36;36.11;101450.41;5028786;28;20508;-60
2022/04/16 08:52:02;;;;;;;8.82;3.03;;;;;;;23.49;35.46;101464.28;5028737;28;20103;-60
2022/04/16 08:54:30;;;;;;;15.25;3.38;;;;;;;23.62;35.20;101461.19;5039050;28;20080;-60
2022/04/16 08:56:56;;;;;;;12.77;2.95;;;;;;;23.76;34.70;101467.84;5039948;28;20047;-60
2022/04/16 08:59:23;;;;;;;7.63;3.20;;;;;;;23.90;34.15;101464.56;5047768;28;20049;-60
2022/04/16 09:01:50;;;;;;;7.15;2.70;;;;;;;23.98;34.06;101460.31;5048224;28;20048;-60
2022/04/16 09:04:21;;;;;;;8.85;3.00;;;;;;;24.05;33.81;101455.97;5048418;28;20130;-60
2022/04/16 09:07:02;;;;;;;8.60;3.78;;;;;;;24.19;33.68;101454.53;5051184;28;20087;-60
2022/04/16 09:09:29;;;;;;;10.93;2.95;;;;;;;24.23;33.47;101451.41;5052350;28;20124;-60
2022/04/16 09:11:56;;;;;;;7.63;2.95;;;;;;;24.38;33.33;101450.78;5031701;28;20132;-60
2022/04/16 09:14:43;;;;;;;6.75;3.10;;;;;;;24.59;32.94;101453.06;5031752;28;20068;-60
2022/04/16 09:17:13;;;;;;;11.23;2.90;;;;;;;24.69;32.89;101448.44;5032342;28;20045;-60
2022/04/16 09:19:40;;;;;;;7.57;4.03;;;;;;;24.87;32.74;101447.47;5032023;28;20494;-60
2022/04/16 09:22:10;;;;;;;6.18;3.53;;;;;;;24.91;32.62;101456.88;5032359;28;20452;-60
2022/04/16 09:24:45;;;;;;;8.85;2.97;;;;;;;25.13;32.47;101457.25;5032437;28;20045;-60
2022/04/16 09:27:11;;;;;;;;;;;;;;;25.18;32.51;101454.91;5031238;28;20041;-60
2022/04/16 09:29:40;;;;;;;7.03;3.03;;;;;;;25.19;32.45;101451.22;5033796;28;19974;-60
2022/04/16 09:32:07;;;;;;;7.60;3.33;;;;;;;25.28;32.11;101455.63;5041344;28;20493;-60
2022/04/16 09:34:34;;;;;;;4.50;3.05;;;;;;;25.20;32.25;101445.66;5031908;28;20049;-60
2022/04/16 09:37:24;;;;;;;7.53;3.40;;;;;;;25.42;32.05;101438.03;5031815;28;20099;-60
2022/04/16 09:39:50;;;;;;;4.75;3.30;;;;;;;25.48;32.00;101437.31;5031754;28;20046;-60
2022/04/16 09:42:24;;;;;;;6.53;3.25;;;;;;;25.54;31.93;101417.84;5031156;28;20053;-59
2022/04/16 09:44:51;;;;;;;6.90;3.38;;;;;;;25.64;31.78;101424.91;5031480;28;20099;-61
2022/04/16 09:47:24;;;;;;;7.13;2.83;;;;;;;25.80;31.66;101422.19;5031896;28;20100;-60
2022/04/16 09:49:54;;;;;;;5.38;2.80;;;;;;;25.82;31.52;101425.53;5031898;28;20085;-60
2022/04/16 09:52:22;;;;;;;4.22;2.30;;;;;;;25.95;31.48;101426.84;5031606;28;20095;-60
2022/04/16 09:54:51;;;;;;;6.28;2.60;;;;;;;26.01;31.56;101421.63;5031549;28;20127;-60
2022/04/16 09:57:21;;;;;;;5.13;2.40;;;;;;;26.20;31.04;101420.41;5030999;28;20052;-59
2022/04/16 09:59:52;;;;;;;7.97;2.70;;;;;;;26.16;31.03;101416.41;5032199;28;20075;-60
2022/04/16 10:02:19;;;;;;;6.07;2.45;;;;;;;26.24;31.12;101413.69;5048148;28;20106;-58
2022/04/16 10:04:47;;;;;;;5.93;2.60;;;;;;;26.35;30.96;101419.69;5051643;28;20148;-59
2022/04/16 10:07:16;;;;;;;4.00;2.35;;;;;;;26.26;31.37;101420.72;5051426;28;20097;-61
2022/04/16 10:09:45;;;;;;;7.97;2.20;;;;;;;26.32;30.78;101425.41;5050822;28;20146;-61
2022/04/16 10:15:10;;;;;;;10.45;3.30;;;;;;;26.56;30.10;101427.16;5051188;28;20088;-60
2022/04/16 10:17:39;;;;;;;4.30;2.60;;;;;;;26.56;29.95;101432.53;5044415;28;20095;-60
2022/04/16 10:20:17;;;;;;;6.00;2.80;;;;;;;26.59;30.31;101425.94;5033180;28;20050;-61
2022/04/16 10:22:55;;;;;;;9.63;2.40;;;;;;;26.77;30.11;101423.06;5031196;28;20109;-60
2022/04/16 10:25:32;;;;;;;10.30;3.03;;;;;;;26.92;29.73;101431.19;5031300;28;20450;-62
2022/04/16 10:28:03;;;;;;;4.43;2.28;;;;;;;26.99;29.41;101430.28;5030261;28;20049;-60
2022/04/16 10:30:42;;;;;;;6.20;2.20;;;;;;;27.03;29.14;101442.41;5030802;28;20055;-60
2022/04/16 10:33:27;;;;;;;7.05;3.20;;;;;;;27.04;29.00;101419.81;5030341;28;20042;-60
2022/04/16 10:35:59;;;;;;;6.07;2.50;;;;;;;27.01;29.09;101422.03;5030817;28;20065;-61
2022/04/16 10:38:34;;;;;;;6.53;2.83;;;;;;;26.07;30.46;101422.81;5036167;28;20306;-61
2022/04/16 10:41:09;;;;;;;5.13;2.65;;;;;;;26.73;29.24;101430.63;5047190;28;20103;-61
2022/04/16 10:43:57;;;;;;;7.03;2.30;;;;;;;26.38;29.80;101416.63;5050352;28;20041;-62
2022/04/16 10:46:24;;;;;;;7.00;2.30;;;;;;;26.84;28.83;101416.78;5050381;28;20045;-61
2022/04/16 10:48:54;;;;;;;5.40;2.75;;;;;;;26.95;28.65;101417.38;5050036;28;20052;-61
2022/04/16 10:51:22;;;;;;;4.85;2.20;;;;;;;27.27;28.27;101424.34;5030016;28;20521;-61
2022/04/16 10:53:49;;;;;;;3.70;2.05;;;;;;;27.48;28.21;101402.13;5030445;28;20049;-61
2022/04/16 10:56:20;;;;;;;3.15;2.30;;;;;;;27.63;28.02;101404.88;5029720;28;20482;-61
2022/04/16 10:59:00;;;;;;;3.63;2.03;;;;;;;27.55;28.11;101402.25;5030317;28;20115;-61
2022/04/16 11:01:29;;;;;;;5.40;2.60;;;;;;;27.70;28.26;101408.47;5030262;28;20057;-61
2022/04/16 11:03:57;;;;;;;7.53;2.15;;;;;;;27.85;27.71;101392.31;5030106;28;20045;-61
2022/04/16 11:06:34;;;;;;;3.08;2.28;;;;;;;27.98;27.74;101404.31;5029894;28;20076;-61
2022/04/16 11:09:01;;;;;;;3.38;2.45;;;;;;;28.16;27.04;101395.88;5030237;28;20046;-61
2022/04/16 11:11:27;;;;;;;6.30;2.95;;;;;;;28.27;27.24;101392.69;5029586;28;20057;-61
2022/04/16 11:13:56;;;;;;;4.82;2.70;;;;;;;28.45;27.03;101391.44;5030121;28;20468;-62
2022/04/16 11:16:22;;;;;;;7.28;3.10;;;;;;;27.78;28.08;101388.72;5030226;28;20096;-61
2022/04/16 11:18:49;;;;;;;7.47;2.90;;;;;;;26.98;29.16;101390.06;5030053;28;20053;-61
2022/04/16 11:21:20;;;;;;;5.72;1.70;;;;;;;27.12;28.95;101389.28;5029360;28;20480;-62
2022/04/16 11:23:50;;;;;;;4.22;1.90;;;;;;;26.78;28.80;101395.94;5030129;28;20077;-65
2022/04/16 11:34:36;;;;;;;7.75;2.53;;;;;;;26.75;28.21;101373.91;5048748;28;20114;-64
2022/04/16 11:37:23;;;;;;;2.08;1.60;;;;;;;26.36;28.95;101378.28;5037533;28;20046;-69
2022/04/16 11:40:19;;;;;;;3.00;1.50;;;;;;;26.59;28.01;101370.28;5028666;28;20485;-65
2022/04/16 11:42:45;;;;;;;2.72;1.58;;;;;;;27.45;26.52;101364.78;5028849;28;20081;-64
2022/04/16 11:45:13;;;;;;;4.18;1.85;;;;;;;27.91;26.09;101357.53;5029669;28;20045;-67
2022/04/16 11:47:40;;;;;;;4.47;1.80;;;;;;;28.10;25.53;101362.41;5029866;28;20177;-65
2022/04/16 11:50:10;;;;;;;4.57;2.00;;;;;;;28.46;25.24;101352.63;5029490;28;20085;-65